Time;durP1;ratioP1;P1;durP2;ratioP2;P2;SDS_P1;SDS_P2;PMS_P1;PMS_P2;Temp;Humidity;BMP_temperature;BMP_pressure;BME280_temperature;BME280_humidity;BME280_pressure;Samples;Min_cycle;Max_cycle;Signal;HPM_P1;HPM_P2
2022/04/27 00:01:09;;;;;;;0.00;0.00;;;10.00;99.90;;;;;;5140952;27;20298;-70
2022/04/27 00:03:35;;;;;;;0.00;0.00;;;10.00;99.90;;;;;;5140317;27;20023;-71
2022/04/27 00:06:00;;;;;;;0.00;0.00;;;10.00;99.90;;;;;;5122628;27;20019;-70
2022/04/27 00:08:26;;;;;;;0.00;0.00;;;10.10;99.90;;;;;;5140023;27;20325;-72
2022/04/27 00:10:52;;;;;;;0.00;0.00;;;10.00;99.90;;;;;;5140568;27;20193;-75
2022/04/27 00:13:17;;;;;;;0.00;0.00;;;10.00;99.90;;;;;;5140526;27;20019;-71
2022/04/27 00:15:43;;;;;;;0.00;0.00;;;10.00;99.90;;;;;;5139471;27;20298;-71
2022/04/27 00:18:09;;;;;;;0.10;0.00;;;10.00;99.90;;;;;;5140897;27;20023;-70
2022/04/27 00:20:34;;;;;;;0.00;0.00;;;9.90;99.90;;;;;;5121531;27;20023;-75
2022/04/27 00:23:00;;;;;;;0.00;0.00;;;9.90;99.90;;;;;;5122178;27;20039;-71
2022/04/27 00:25:26;;;;;;;0.00;0.00;;;10.00;99.90;;;;;;5140257;27;20027;-76
2022/04/27 00:27:52;;;;;;;0.00;0.00;;;9.90;99.90;;;;;;5140536;27;20262;-70
2022/04/27 00:30:17;;;;;;;0.00;0.00;;;10.00;99.90;;;;;;5122104;27;20066;-71
2022/04/27 00:32:43;;;;;;;0.00;0.00;;;10.00;99.90;;;;;;5139847;27;20082;-70
2022/04/27 00:35:09;;;;;;;0.00;0.00;;;10.00;99.90;;;;;;5121933;28;20053;-70
2022/04/27 00:37:35;;;;;;;0.17;0.00;;;10.00;99.90;;;;;;5121386;28;20325;-70
2022/04/27 00:40:01;;;;;;;0.00;0.00;;;9.90;99.90;;;;;;5121984;27;20094;-69
2022/04/27 00:42:26;;;;;;;0.00;0.00;;;9.90;99.90;;;;;;5139709;27;20011;-76
2022/04/27 00:44:52;;;;;;;0.00;0.00;;;9.90;99.90;;;;;;5121829;27;20056;-72
2022/04/27 00:47:19;;;;;;;0.00;0.00;;;9.80;99.90;;;;;;5139909;27;20071;-70
2022/04/27 00:49:49;;;;;;;0.00;0.00;;;9.80;99.90;;;;;;5121106;28;20207;-71
2022/04/27 00:52:16;;;;;;;0.00;0.00;;;9.80;99.90;;;;;;5117880;28;20343;-72
2022/04/27 00:54:44;;;;;;;0.00;0.00;;;9.90;99.90;;;;;;5119170;28;20315;-73
2022/04/27 00:57:10;;;;;;;0.00;0.00;;;9.80;99.90;;;;;;5118396;28;20016;-72
2022/04/27 01:02:21;;;;;;;0.00;0.00;;;9.90;99.90;;;;;;5119419;28;20027;-74
2022/04/27 01:04:47;;;;;;;0.00;0.00;;;9.90;99.90;;;;;;5121904;28;20316;-70
2022/04/27 01:07:13;;;;;;;0.00;0.00;;;9.90;99.90;;;;;;5122407;28;20024;-71
2022/04/27 01:09:40;;;;;;;0.00;0.00;;;9.80;99.90;;;;;;5122151;28;20084;-70
2022/04/27 01:12:07;;;;;;;0.00;0.00;;;9.80;99.90;;;;;;5070077;22;20356;-77
2022/04/27 01:14:47;;;;;;;0.00;0.00;;;9.90;99.90;;;;;;5022558;28;20069;-77
2022/04/27 01:17:13;;;;;;;1.35;0.35;;;9.90;99.90;;;;;;5026449;28;20025;-79
2022/04/27 01:19:39;;;;;;;0.00;0.00;;;9.90;99.90;;;;;;5035440;28;20320;-79
2022/04/27 01:22:05;;;;;;;0.00;0.00;;;9.90;99.90;;;;;;5034070;28;20871;-79
2022/04/27 01:24:31;;;;;;;0.00;0.00;;;9.80;99.90;;;;;;5022581;28;20022;-79
2022/04/27 01:26:57;;;;;;;0.00;0.00;;;9.80;99.90;;;;;;5025897;28;20165;-79
2022/04/27 01:29:23;;;;;;;0.00;0.00;;;9.90;99.90;;;;;;5036920;28;20026;-79
2022/04/27 01:31:50;;;;;;;0.00;0.00;;;9.80;99.90;;;;;;5021854;28;20025;-79
2022/04/27 01:34:16;;;;;;;0.00;0.00;;;9.90;99.90;;;;;;5020059;28;20034;-79
2022/04/27 01:36:42;;;;;;;0.00;0.00;;;9.80;99.90;;;;;;5019710;28;20041;-76
2022/04/27 01:39:08;;;;;;;0.03;0.03;;;9.80;99.90;;;;;;5022608;28;20025;-76
2022/04/27 01:41:36;;;;;;;0.00;0.00;;;9.80;99.90;;;;;;5033980;28;20022;-78
2022/04/27 01:44:03;;;;;;;0.00;0.00;;;9.80;99.90;;;;;;5034272;28;20022;-77
2022/04/27 01:46:32;;;;;;;0.30;0.10;;;9.80;99.90;;;;;;5020295;28;20037;-77
2022/04/27 01:48:58;;;;;;;0.00;0.00;;;9.80;99.90;;;;;;5029917;28;20017;-77
2022/04/27 01:54:15;;;;;;;0.00;0.00;;;9.80;99.90;;;;;;5020414;28;20040;-77
2022/04/27 01:56:48;;;;;;;0.00;0.00;;;9.80;99.90;;;;;;5020257;28;20101;-77
2022/04/27 01:59:14;;;;;;;0.00;0.00;;;9.70;99.90;;;;;;5033088;28;20324;-78
2022/04/27 02:01:41;;;;;;;0.00;0.00;;;9.70;99.90;;;;;;5026250;28;20104;-75
2022/04/27 02:04:07;;;;;;;0.00;0.00;;;9.80;99.90;;;;;;5020596;28;20062;-76
2022/04/27 02:06:35;;;;;;;0.00;0.00;;;9.80;99.90;;;;;;5026916;28;20312;-76
2022/04/27 02:09:05;;;;;;;0.00;0.00;;;9.80;99.90;;;;;;5020616;28;20102;-75
2022/04/27 02:11:32;;;;;;;0.00;0.00;;;9.80;99.90;;;;;;5024445;28;20058;-76
2022/04/27 02:13:58;;;;;;;0.55;0.55;;;10.00;99.90;;;;;;5025041;28;20038;-75
2022/04/27 02:16:29;;;;;;;0.38;0.05;;;9.70;99.90;;;;;;5021242;28;20021;-81
2022/04/27 02:18:55;;;;;;;0.00;0.00;;;9.80;99.90;;;;;;5032350;28;20025;-80
2022/04/27 02:21:25;;;;;;;0.00;0.00;;;9.70;99.90;;;;;;5033217;28;20025;-80
2022/04/27 02:23:51;;;;;;;0.00;0.00;;;9.70;99.90;;;;;;5024668;28;20053;-78
2022/04/27 02:26:17;;;;;;;0.00;0.00;;;9.70;99.90;;;;;;5043686;28;20217;-78
2022/04/27 02:28:43;;;;;;;0.10;0.00;;;9.70;99.90;;;;;;5022086;28;20120;-78
2022/04/27 02:31:09;;;;;;;0.47;0.10;;;9.70;99.90;;;;;;5020188;28;20193;-78
2022/04/27 02:33:35;;;;;;;0.00;0.00;;;9.70;99.90;;;;;;5023757;28;20036;-79
2022/04/27 02:36:01;;;;;;;0.00;0.00;;;9.70;99.90;;;;;;5023873;28;20033;-79
2022/04/27 02:38:27;;;;;;;0.00;0.00;;;9.70;99.90;;;;;;5037243;28;20309;-79
2022/04/27 02:40:54;;;;;;;0.10;0.08;;;9.70;99.90;;;;;;5020292;28;20045;-79
2022/04/27 02:43:21;;;;;;;0.00;0.00;;;9.70;99.90;;;;;;5036872;28;20029;-80
2022/04/27 02:45:49;;;;;;;0.00;0.00;;;9.70;99.90;;;;;;5023466;28;20033;-79
2022/04/27 02:48:15;;;;;;;;;;;9.70;99.90;;;;;;5021839;28;20018;-79
2022/04/27 02:53:26;;;;;;;0.00;0.00;;;9.70;99.90;;;;;;5024637;28;20041;-71
2022/04/27 02:55:51;;;;;;;0.00;0.00;;;9.60;99.90;;;;;;5020095;28;20076;-71
2022/04/27 02:58:36;;;;;;;0.00;0.00;;;9.60;99.90;;;;;;5021604;28;20244;-71
2022/04/27 03:01:02;;;;;;;1.20;0.20;;;9.70;99.90;;;;;;5021319;28;20207;-71
2022/04/27 03:03:27;;;;;;;0.30;0.13;;;9.70;99.90;;;;;;5035929;28;20333;-74
2022/04/27 03:05:53;;;;;;;0.00;0.00;;;9.70;99.90;;;;;;5021282;28;20080;-70
2022/04/27 03:08:19;;;;;;;0.30;0.20;;;9.70;99.90;;;;;;5021081;28;20048;-71
2022/04/27 03:10:47;;;;;;;0.00;0.00;;;9.70;99.90;;;;;;5035539;28;20046;-71
2022/04/27 03:13:12;;;;;;;0.00;0.00;;;9.60;99.90;;;;;;5019852;28;20335;-75
2022/04/27 03:15:38;;;;;;;0.00;0.00;;;9.70;99.90;;;;;;5020523;28;20038;-71
2022/04/27 03:18:19;;;;;;;0.00;0.00;;;9.70;99.90;;;;;;5021084;28;20014;-71
2022/04/27 03:20:47;;;;;;;0.00;0.00;;;9.70;99.90;;;;;;5035707;28;20320;-71
2022/04/27 03:23:13;;;;;;;0.43;0.10;;;9.70;99.90;;;;;;5036037;28;20034;-71
2022/04/27 03:25:39;;;;;;;0.00;0.00;;;9.70;99.90;;;;;;5019105;28;20049;-69
2022/04/27 03:28:05;;;;;;;0.13;0.13;;;9.70;99.90;;;;;;5020466;28;20109;-69
2022/04/27 03:30:31;;;;;;;0.00;0.00;;;9.70;99.90;;;;;;5019061;28;20050;-70
2022/04/27 03:32:59;;;;;;;0.00;0.00;;;9.70;99.90;;;;;;5020736;28;20077;-69
2022/04/27 03:35:26;;;;;;;0.00;0.00;;;9.70;99.90;;;;;;5019236;28;20107;-69
2022/04/27 03:37:52;;;;;;;0.00;0.00;;;9.70;99.90;;;;;;5035347;28;20309;-76
2022/04/27 03:40:21;;;;;;;0.00;0.00;;;9.70;99.90;;;;;;5020222;28;20024;-70
2022/04/27 03:42:48;;;;;;;0.03;0.03;;;9.70;99.90;;;;;;5019209;28;20021;-71
2022/04/27 03:45:14;;;;;;;0.00;0.00;;;9.70;99.90;;;;;;5020131;28;20068;-77
2022/04/27 03:47:40;;;;;;;0.00;0.00;;;9.70;99.90;;;;;;5019981;28;20030;-70
2022/04/27 03:50:06;;;;;;;0.00;0.00;;;9.70;99.90;;;;;;5035804;28;20017;-70
2022/04/27 03:52:32;;;;;;;0.00;0.00;;;9.70;99.90;;;;;;5020199;28;20021;-76
2022/04/27 03:55:02;;;;;;;0.00;0.00;;;9.70;99.90;;;;;;5020827;28;20064;-71
2022/04/27 03:57:28;;;;;;;0.00;0.00;;;9.70;99.90;;;;;;5036223;28;20119;-72
2022/04/27 03:59:54;;;;;;;0.00;0.00;;;9.70;99.90;;;;;;5018673;28;20018;-71
2022/04/27 04:02:20;;;;;;;0.17;0.17;;;9.80;99.90;;;;;;5020540;28;20018;-77
2022/04/27 04:04:46;;;;;;;0.00;0.00;;;9.80;99.90;;;;;;5020136;28;20088;-71
2022/04/27 04:07:12;;;;;;;0.00;0.00;;;9.80;99.90;;;;;;5019965;28;20022;-75
2022/04/27 04:09:39;;;;;;;0.00;0.00;;;9.70;99.90;;;;;;5019423;28;20272;-77
2022/04/27 04:12:06;;;;;;;0.00;0.00;;;9.70;99.90;;;;;;5018333;28;20372;-69
2022/04/27 04:14:32;;;;;;;0.00;0.00;;;9.70;99.90;;;;;;5018483;28;20106;-73
2022/04/27 04:16:58;;;;;;;0.00;0.00;;;9.70;99.90;;;;;;5020155;28;20254;-71
2022/04/27 04:19:24;;;;;;;0.00;0.00;;;9.70;99.90;;;;;;5018611;28;20024;-73
2022/04/27 04:21:49;;;;;;;0.00;0.00;;;9.70;99.90;;;;;;5018276;28;20049;-71
2022/04/27 04:24:15;;;;;;;0.00;0.00;;;9.80;99.90;;;;;;5020067;28;20028;-73
2022/04/27 04:29:26;;;;;;;0.00;0.00;;;9.80;99.90;;;;;;5019849;28;20360;-73
2022/04/27 04:31:51;;;;;;;0.00;0.00;;;9.90;99.90;;;;;;5018339;28;20021;-72
2022/04/27 04:34:17;;;;;;;0.00;0.00;;;9.80;99.90;;;;;;5035453;28;20029;-72
2022/04/27 04:36:43;;;;;;;0.00;0.00;;;9.90;99.90;;;;;;5019047;28;20017;-72
2022/04/27 04:39:09;;;;;;;0.00;0.00;;;9.90;99.90;;;;;;5018912;28;20317;-78
2022/04/27 04:41:35;;;;;;;0.20;0.20;;;9.90;99.90;;;;;;5034810;28;20048;-72
2022/04/27 04:44:00;;;;;;;0.00;0.00;;;10.00;99.90;;;;;;5020120;28;20262;-74
2022/04/27 04:46:26;;;;;;;0.00;0.00;;;10.00;99.90;;;;;;5018573;28;20018;-70
2022/04/27 04:48:52;;;;;;;0.00;0.00;;;10.00;99.90;;;;;;5019096;28;20341;-79
2022/04/27 04:51:18;;;;;;;0.00;0.00;;;10.00;99.90;;;;;;5018562;28;20068;-71
2022/04/27 04:53:43;;;;;;;0.20;0.10;;;10.00;99.90;;;;;;5018670;28;20025;-72
2022/04/27 04:56:09;;;;;;;0.00;0.00;;;10.00;99.90;;;;;;5019722;28;20407;-72
2022/04/27 04:58:34;;;;;;;0.90;0.10;;;10.00;99.90;;;;;;5017691;28;20324;-72
2022/04/27 05:01:01;;;;;;;0.00;0.00;;;10.00;99.90;;;;;;5034384;28;20260;-72
2022/04/27 05:03:27;;;;;;;0.30;0.30;;;10.00;99.90;;;;;;5019297;28;20017;-70
2022/04/27 05:05:53;;;;;;;0.00;0.00;;;10.00;99.90;;;;;;5018836;28;20036;-70
2022/04/27 05:08:18;;;;;;;0.00;0.00;;;10.00;99.90;;;;;;5019331;28;20018;-70
2022/04/27 05:10:44;;;;;;;0.00;0.00;;;10.00;99.90;;;;;;5018455;28;20241;-74
2022/04/27 05:13:10;;;;;;;0.20;0.10;;;10.00;99.90;;;;;;5019373;28;20089;-73
2022/04/27 05:15:36;;;;;;;0.03;0.03;;;10.00;99.90;;;;;;5033456;28;20029;-70
2022/04/27 05:18:02;;;;;;;0.00;0.00;;;10.00;99.90;;;;;;5034316;28;20186;-77
2022/04/27 05:20:28;;;;;;;0.00;0.00;;;10.00;99.90;;;;;;5018712;28;20037;-69
2022/04/27 05:22:53;;;;;;;0.00;0.00;;;9.90;99.90;;;;;;5033919;28;20052;-70
2022/04/27 05:25:19;;;;;;;0.00;0.00;;;10.00;99.90;;;;;;5019302;28;20022;-70
2022/04/27 05:27:45;;;;;;;0.00;0.00;;;10.00;99.90;;;;;;5033856;28;20021;-68
2022/04/27 05:32:55;;;;;;;0.00;0.00;;;10.00;99.90;;;;;;5018505;28;20024;-70
2022/04/27 05:35:22;;;;;;;0.00;0.00;;;10.00;99.90;;;;;;5019562;28;20030;-70
2022/04/27 05:37:48;;;;;;;0.00;0.00;;;10.00;99.90;;;;;;5019023;28;20053;-72
2022/04/27 05:40:14;;;;;;;0.00;0.00;;;10.00;99.90;;;;;;5019270;28;20021;-70
2022/04/27 05:42:40;;;;;;;0.00;0.00;;;10.00;99.90;;;;;;5018861;28;20029;-67
2022/04/27 05:45:24;;;;;;;0.00;0.00;;;10.00;99.90;;;;;;5018897;28;20141;-67
2022/04/27 05:47:50;;;;;;;0.00;0.00;;;10.00;99.90;;;;;;5017337;28;20022;-70
2022/04/27 05:50:16;;;;;;;0.00;0.00;;;10.00;99.90;;;;;;5036922;28;20323;-69
2022/04/27 05:52:52;;;;;;;0.00;0.00;;;10.00;99.90;;;;;;5022039;28;20026;-66
2022/04/27 05:55:21;;;;;;;0.00;0.00;;;10.00;99.90;;;;;;5021510;28;20061;-69
2022/04/27 05:57:47;;;;;;;0.00;0.00;;;10.10;99.90;;;;;;5022215;28;20022;-70
2022/04/27 06:00:14;;;;;;;0.00;0.00;;;10.10;99.90;;;;;;5021067;28;20032;-69
2022/04/27 06:02:40;;;;;;;0.00;0.00;;;10.10;99.90;;;;;;5021135;28;20087;-69
2022/04/27 06:05:08;;;;;;;0.52;0.52;;;10.20;99.90;;;;;;5020775;28;20025;-69
2022/04/27 06:07:35;;;;;;;0.00;0.00;;;10.10;99.90;;;;;;5022815;28;20024;-71
2022/04/27 06:10:06;;;;;;;0.00;0.00;;;10.10;99.90;;;;;;5024470;28;20028;-70
2022/04/27 06:12:51;;;;;;;0.00;0.00;;;10.10;99.90;;;;;;5022016;28;20140;-79
2022/04/27 06:15:16;;;;;;;0.00;0.00;;;10.10;99.90;;;;;;5021943;28;20045;-71
2022/04/27 06:17:42;;;;;;;0.00;0.00;;;10.00;99.90;;;;;;5021800;28;20021;-73
2022/04/27 06:20:09;;;;;;;0.00;0.00;;;10.10;99.90;;;;;;5021014;28;20039;-70
2022/04/27 06:22:35;;;;;;;0.00;0.00;;;10.10;99.90;;;;;;5021646;28;20033;-72
2022/04/27 06:25:03;;;;;;;0.00;0.00;;;10.10;99.90;;;;;;5022415;28;20022;-70
2022/04/27 06:27:28;;;;;;;0.00;0.00;;;10.10;99.90;;;;;;5021946;28;20026;-71
2022/04/27 06:29:54;;;;;;;0.00;0.00;;;10.10;99.90;;;;;;5037046;28;20327;-69
2022/04/27 06:32:20;;;;;;;0.10;0.10;;;10.10;99.90;;;;;;5022320;28;20247;-70
2022/04/27 06:34:45;;;;;;;0.00;0.00;;;10.20;99.90;;;;;;5021136;28;20213;-75
2022/04/27 06:37:11;;;;;;;0.00;0.00;;;10.20;99.90;;;;;;5022717;28;20219;-69
2022/04/27 06:39:38;;;;;;;0.10;0.10;;;10.20;99.90;;;;;;5020074;28;20305;-72
2022/04/27 06:42:05;;;;;;;0.00;0.00;;;10.20;99.90;;;;;;5020627;28;20128;-72
2022/04/27 06:44:35;;;;;;;0.00;0.00;;;10.20;99.90;;;;;;5020541;28;20033;-71
2022/04/27 06:47:02;;;;;;;0.00;0.00;;;10.30;99.90;;;;;;5021849;28;20084;-71
2022/04/27 06:49:28;;;;;;;0.00;0.00;;;10.30;99.90;;;;;;5037083;28;20097;-74
2022/04/27 06:51:54;;;;;;;0.00;0.00;;;10.40;99.90;;;;;;5019733;28;20029;-69
2022/04/27 06:54:20;;;;;;;0.00;0.00;;;10.40;99.90;;;;;;5020290;28;20312;-70
2022/04/27 06:56:46;;;;;;;0.00;0.00;;;10.30;99.90;;;;;;5019737;28;20101;-70
2022/04/27 06:59:12;;;;;;;0.00;0.00;;;10.30;99.90;;;;;;5021400;28;20207;-79
2022/04/27 07:01:39;;;;;;;0.00;0.00;;;10.40;99.90;;;;;;5021021;28;20022;-71
2022/04/27 07:04:09;;;;;;;0.00;0.00;;;10.50;99.90;;;;;;5036452;28;20022;-73
2022/04/27 07:06:35;;;;;;;0.00;0.00;;;10.50;99.90;;;;;;5020966;28;20021;-70
2022/04/27 07:09:01;;;;;;;0.00;0.00;;;10.50;99.90;;;;;;5021092;28;20025;-70
2022/04/27 07:11:27;;;;;;;0.00;0.00;;;10.60;99.90;;;;;;5020772;28;20054;-69
2022/04/27 07:13:56;;;;;;;0.00;0.00;;;10.70;99.90;;;;;;5035656;28;20229;-71
2022/04/27 07:16:22;;;;;;;0.00;0.00;;;10.90;99.90;;;;;;5036411;28;20113;-69
2022/04/27 07:18:50;;;;;;;0.00;0.00;;;11.00;99.90;;;;;;5019252;28;20289;-69
2022/04/27 07:21:16;;;;;;;0.00;0.00;;;11.00;99.90;;;;;;5036176;28;20028;-69
2022/04/27 07:23:42;;;;;;;0.00;0.00;;;11.00;99.90;;;;;;5019190;28;20195;-76
2022/04/27 07:26:08;;;;;;;0.00;0.00;;;10.90;99.90;;;;;;5019753;28;20128;-70
2022/04/27 07:28:36;;;;;;;4.75;3.30;;;10.90;99.90;;;;;;5020731;28;20364;-81
2022/04/27 07:31:02;;;;;;;0.00;0.00;;;10.90;99.90;;;;;;5019647;28;20072;-79
2022/04/27 07:33:28;;;;;;;0.00;0.00;;;10.90;99.90;;;;;;5020952;28;20018;-69
2022/04/27 07:35:53;;;;;;;0.00;0.00;;;10.90;99.90;;;;;;5018967;28;20041;-72
2022/04/27 07:38:19;;;;;;;0.00;0.00;;;10.90;99.90;;;;;;5020670;28;20045;-75
2022/04/27 07:40:45;;;;;;;0.00;0.00;;;10.90;99.90;;;;;;5018772;28;20045;-71
2022/04/27 07:43:11;;;;;;;0.00;0.00;;;11.00;99.90;;;;;;5020644;28;20021;-67
2022/04/27 07:45:36;;;;;;;0.00;0.00;;;11.10;99.90;;;;;;5035077;28;20026;-69
2022/04/27 07:48:02;;;;;;;0.00;0.00;;;11.10;99.90;;;;;;5020299;28;20028;-72
2022/04/27 07:50:28;;;;;;;0.00;0.00;;;11.10;99.90;;;;;;5020225;28;20328;-76
2022/04/27 07:52:56;;;;;;;0.00;0.00;;;11.10;99.90;;;;;;5019449;28;20435;-76
2022/04/27 07:55:22;;;;;;;0.00;0.00;;;11.20;99.90;;;;;;5019032;28;20029;-75
2022/04/27 07:57:48;;;;;;;0.00;0.00;;;11.20;99.90;;;;;;5018695;28;20041;-70
2022/04/27 08:00:33;;;;;;;0.00;0.00;;;11.20;99.90;;;;;;5020160;28;20018;-69
2022/04/27 08:02:58;;;;;;;0.00;0.00;;;11.30;99.90;;;;;;5020040;28;20025;-69
2022/04/27 08:05:25;;;;;;;0.00;0.00;;;11.50;99.90;;;;;;5019679;28;20368;-75
2022/04/27 08:07:50;;;;;;;0.00;0.00;;;11.50;99.90;;;;;;5019591;28;20328;-69
2022/04/27 08:10:19;;;;;;;0.00;0.00;;;11.60;99.90;;;;;;5020066;28;20021;-70
2022/04/27 08:12:47;;;;;;;0.10;0.10;;;11.60;99.90;;;;;;5019017;28;20050;-69
2022/04/27 08:15:24;;;;;;;0.00;0.00;;;11.60;99.90;;;;;;5035142;28;20068;-73
2022/04/27 08:17:59;;;;;;;0.00;0.00;;;11.60;99.90;;;;;;5019698;28;20014;-69
2022/04/27 08:23:16;;;;;;;0.32;0.32;;;11.60;99.90;;;;;;5000618;28;20076;-68
2022/04/27 08:25:43;;;;;;;0.00;0.00;;;11.70;99.90;;;;;;5019523;28;20037;-72
2022/04/27 08:28:09;;;;;;;0.75;0.75;;;11.80;99.90;;;;;;5018639;28;20018;-69
2022/04/27 08:30:37;;;;;;;0.00;0.00;;;11.90;99.90;;;;;;5019361;28;20081;-80
2022/04/27 08:33:04;;;;;;;0.00;0.00;;;11.90;99.90;;;;;;5018507;28;20049;-67
2022/04/27 08:35:34;;;;;;;0.00;0.00;;;11.90;99.90;;;;;;5019488;28;20128;-69
2022/04/27 08:38:04;;;;;;;0.00;0.00;;;11.90;99.90;;;;;;5019613;28;20182;-68
2022/04/27 08:40:30;;;;;;;0.00;0.00;;;12.00;99.90;;;;;;5019411;28;20028;-70
2022/04/27 08:43:00;;;;;;;1.45;0.20;;;12.00;99.90;;;;;;5017788;28;20021;-71
2022/04/27 08:45:26;;;;;;;0.10;0.00;;;12.00;99.90;;;;;;5019411;28;20068;-70
2022/04/27 08:47:52;;;;;;;0.00;0.00;;;12.10;99.90;;;;;;5018569;28;20313;-75
2022/04/27 08:50:20;;;;;;;0.00;0.00;;;12.20;99.90;;;;;;5019392;28;20036;-71
2022/04/27 08:52:47;;;;;;;0.00;0.00;;;12.30;99.90;;;;;;5018072;28;20045;-71
2022/04/27 08:55:14;;;;;;;0.00;0.00;;;12.40;99.90;;;;;;5016977;28;20034;-72
2022/04/27 08:57:40;;;;;;;0.00;0.00;;;12.50;99.90;;;;;;5019155;28;20076;-70
2022/04/27 09:00:11;;;;;;;0.00;0.00;;;12.50;99.90;;;;;;5018257;28;20153;-71
2022/04/27 09:02:37;;;;;;;0.00;0.00;;;12.50;99.90;;;;;;5014362;28;20014;-79
2022/04/27 09:05:17;;;;;;;0.00;0.00;;;12.60;99.90;;;;;;5008235;28;20033;-73
2022/04/27 09:07:51;;;;;;;0.00;0.00;;;12.70;99.90;;;;;;5008220;28;20022;-71
2022/04/27 09:10:24;;;;;;;0.00;0.00;;;12.70;99.90;;;;;;5008604;28;20105;-78
2022/04/27 09:12:55;;;;;;;0.00;0.00;;;12.70;99.90;;;;;;4991104;28;20093;-84
2022/04/27 09:15:26;;;;;;;0.00;0.00;;;12.60;99.90;;;;;;5007770;28;20033;-73
2022/04/27 09:23:45;;;;;;;0.00;0.00;;;12.30;99.90;;;;;;4999718;28;20114;-77
2022/04/27 09:26:15;;;;;;;0.20;0.10;;;12.30;99.90;;;;;;5013313;28;20025;-76
2022/04/27 09:28:47;;;;;;;0.00;0.00;;;12.30;99.90;;;;;;5011689;28;20022;-77
2022/04/27 09:31:35;;;;;;;0.63;0.47;;;12.20;99.90;;;;;;5011616;28;20022;-76
2022/04/27 09:34:02;;;;;;;;;;;12.20;99.90;;;;;;5009944;28;20084;-74
2022/04/27 09:36:28;;;;;;;1.02;0.10;;;12.30;99.90;;;;;;5026660;28;19908;-69
2022/04/27 09:38:56;;;;;;;0.32;0.20;;;12.30;99.90;;;;;;5026555;28;20029;-73
2022/04/27 09:41:44;;;;;;;0.05;0.05;;;12.30;99.90;;;;;;5011577;28;20336;-71
2022/04/27 09:44:30;;;;;;;0.00;0.00;;;12.20;99.90;;;;;;5011765;28;20018;-76
2022/04/27 09:46:55;;;;;;;0.00;0.00;;;12.30;99.90;;;;;;5010921;28;20155;-76
2022/04/27 09:49:22;;;;;;;1.08;0.20;;;12.20;99.90;;;;;;5011384;28;20022;-76
2022/04/27 09:51:51;;;;;;;0.00;0.00;;;12.20;99.90;;;;;;5011342;28;20021;-77
2022/04/27 09:54:25;;;;;;;0.00;0.00;;;12.20;99.90;;;;;;5010389;28;20101;-75
2022/04/27 09:56:54;;;;;;;0.00;0.00;;;12.20;99.90;;;;;;5009841;28;20405;-76
2022/04/27 09:59:22;;;;;;;0.00;0.00;;;12.10;99.90;;;;;;5012003;28;20086;-74
2022/04/27 10:01:53;;;;;;;0.98;0.10;;;12.10;99.90;;;;;;5010237;28;20022;-75
2022/04/27 10:04:23;;;;;;;0.00;0.00;;;12.20;99.90;;;;;;5027147;28;20026;-69
2022/04/27 10:06:50;;;;;;;0.93;0.20;;;12.20;99.90;;;;;;5010283;28;20022;-75
2022/04/27 10:09:15;;;;;;;0.00;0.00;;;12.20;99.90;;;;;;5010298;28;20022;-69
2022/04/27 10:11:43;;;;;;;0.00;0.00;;;12.20;99.90;;;;;;5011502;28;20065;-70
2022/04/27 10:14:10;;;;;;;0.07;0.07;;;12.20;99.90;;;;;;5013413;28;20018;-69
2022/04/27 10:16:36;;;;;;;0.32;0.30;;;12.30;99.90;;;;;;5014860;28;20252;-73
2022/04/27 10:19:01;;;;;;;0.00;0.00;;;12.30;99.90;;;;;;5012452;28;20017;-69
2022/04/27 10:21:43;;;;;;;0.00;0.00;;;12.40;99.90;;;;;;5013235;28;20022;-69
2022/04/27 10:24:12;;;;;;;0.00;0.00;;;12.40;99.90;;;;;;5011922;28;20262;-73
2022/04/27 10:26:40;;;;;;;0.10;0.00;;;12.30;99.90;;;;;;5014241;28;20032;-76
2022/04/27 10:29:08;;;;;;;0.10;0.10;;;12.40;99.90;;;;;;5014729;28;20025;-68
2022/04/27 10:31:43;;;;;;;0.10;0.00;;;12.40;99.90;;;;;;5029183;28;20022;-68
2022/04/27 10:34:18;;;;;;;0.00;0.00;;;12.40;99.90;;;;;;5012844;28;20249;-71
2022/04/27 10:36:47;;;;;;;0.05;0.03;;;12.60;99.90;;;;;;5013053;28;20081;-71
2022/04/27 10:39:13;;;;;;;0.00;0.00;;;12.60;99.90;;;;;;5028642;28;20017;-68
2022/04/27 10:41:48;;;;;;;0.15;0.15;;;12.70;99.90;;;;;;5029088;28;20029;-76
2022/04/27 10:44:14;;;;;;;0.10;0.10;;;12.80;99.90;;;;;;5012561;28;20093;-70
2022/04/27 10:46:43;;;;;;;0.00;0.00;;;13.00;99.90;;;;;;5013497;28;20025;-76
2022/04/27 10:49:28;;;;;;;7.13;1.15;;;13.20;99.90;;;;;;5013857;28;20085;-69
2022/04/27 10:52:08;;;;;;;0.00;0.00;;;13.30;99.90;;;;;;5013589;28;20100;-69
2022/04/27 10:54:39;;;;;;;0.10;0.10;;;13.40;99.90;;;;;;5028647;28;20050;-76
2022/04/27 10:57:14;;;;;;;0.00;0.00;;;13.40;99.90;;;;;;5013143;28;20025;-76
2022/04/27 10:59:47;;;;;;;0.22;0.10;;;13.40;99.90;;;;;;5012939;28;20018;-77
2022/04/27 11:02:34;;;;;;;0.05;0.00;;;13.40;99.90;;;;;;5012732;28;20025;-71
2022/04/27 11:05:19;;;;;;;0.00;0.00;;;13.40;99.90;;;;;;5028558;28;20128;-75
2022/04/27 11:07:57;;;;;;;0.57;0.13;;;13.30;99.90;;;;;;5012850;28;20089;-70
2022/04/27 11:10:24;;;;;;;0.10;0.03;;;13.30;99.90;;;;;;5014385;28;20028;-69
2022/04/27 11:12:55;;;;;;;0.60;0.30;;;13.50;99.90;;;;;;5010672;28;20314;-72
2022/04/27 11:15:22;;;;;;;0.20;0.10;;;13.70;99.90;;;;;;5013723;28;20033;-70
2022/04/27 11:17:52;;;;;;;0.10;0.10;;;13.80;99.90;;;;;;5008577;28;20097;-73
2022/04/27 11:20:34;;;;;;;0.70;0.38;;;13.80;99.90;;;;;;5010582;28;20053;-78
2022/04/27 11:23:03;;;;;;;0.00;0.00;;;14.00;99.90;;;;;;5009311;28;20080;-70
2022/04/27 11:25:37;;;;;;;0.20;0.20;;;14.10;99.90;;;;;;5008684;28;20087;-78
2022/04/27 11:28:06;;;;;;;0.57;0.28;;;14.40;99.90;;;;;;5008759;28;20022;-70
2022/04/27 11:30:32;;;;;;;0.35;0.08;;;14.10;99.90;;;;;;5009986;28;20081;-75
2022/04/27 11:33:00;;;;;;;0.15;0.15;;;13.90;99.90;;;;;;5007660;28;20266;-70
2022/04/27 11:35:40;;;;;;;0.10;0.10;;;13.90;99.90;;;;;;5010144;28;20026;-75
2022/04/27 11:38:08;;;;;;;0.65;0.43;;;13.90;99.90;;;;;;5024127;28;20038;-74
2022/04/27 11:40:37;;;;;;;0.00;0.00;;;13.80;99.90;;;;;;5008880;28;20307;-73
2022/04/27 11:43:06;;;;;;;0.00;0.00;;;13.90;99.90;;;;;;5009831;28;20117;-71
2022/04/27 11:45:32;;;;;;;0.00;0.00;;;14.00;99.90;;;;;;5013030;28;20071;-79
2022/04/27 11:48:09;;;;;;;0.10;0.00;;;14.20;99.90;;;;;;5010027;28;20064;-76
2022/04/27 11:50:37;;;;;;;0.00;0.00;;;14.80;99.90;;;;;;5012322;28;20059;-72
2022/04/27 11:53:05;;;;;;;0.00;0.00;;;15.00;99.90;;;;;;5011925;28;20305;-72
2022/04/27 11:55:32;;;;;;;;;;;14.90;99.90;;;;;;5011936;28;20036;-77
2022/04/27 11:57:57;;;;;;;0.00;0.00;;;14.80;99.90;;;;;;5011409;28;19924;-71
2022/04/27 12:00:26;;;;;;;0.00;0.00;;;14.60;99.90;;;;;;5012595;28;20060;-74
2022/04/27 12:02:53;;;;;;;0.00;0.00;;;14.50;99.90;;;;;;5011667;28;20060;-75
2022/04/27 12:05:29;;;;;;;0.00;0.00;;;14.40;99.90;;;;;;5011415;28;20033;-69
2022/04/27 12:07:55;;;;;;;0.00;0.00;;;14.50;99.90;;;;;;5011524;28;20045;-69
2022/04/27 12:10:20;;;;;;;0.00;0.00;;;14.60;99.90;;;;;;5010746;28;20097;-69
2022/04/27 12:12:47;;;;;;;0.00;0.00;;;14.70;99.90;;;;;;5011675;28;20049;-75
2022/04/27 12:15:14;;;;;;;0.00;0.00;;;14.80;99.90;;;;;;5011046;28;20033;-78
2022/04/27 12:17:44;;;;;;;0.00;0.00;;;14.70;99.70;;;;;;5012612;28;20025;-70
2022/04/27 12:20:22;;;;;;;0.17;0.00;;;14.60;99.80;;;;;;5012226;28;20017;-78
2022/04/27 12:22:53;;;;;;;0.13;0.10;;;14.60;99.60;;;;;;5025927;28;20018;-73
2022/04/27 12:25:19;;;;;;;0.03;0.03;;;14.50;99.70;;;;;;5027219;28;20327;-74
2022/04/27 12:27:44;;;;;;;0.00;0.00;;;14.50;99.90;;;;;;5026138;28;20017;-74
2022/04/27 12:30:11;;;;;;;0.10;0.10;;;14.30;99.60;;;;;;5011324;28;20289;-74
2022/04/27 12:32:37;;;;;;;0.03;0.00;;;14.20;99.70;;;;;;5026343;28;20317;-68
2022/04/27 12:37:53;;;;;;;0.00;0.00;;;14.10;99.90;;;;;;5011038;28;20303;-74
2022/04/27 12:40:19;;;;;;;0.20;0.20;;;14.10;99.90;;;;;;5012152;28;20044;-71
2022/04/27 12:43:07;;;;;;;0.00;0.00;;;14.10;99.90;;;;;;5009367;28;20025;-80
2022/04/27 12:45:35;;;;;;;0.00;0.00;;;14.20;99.90;;;;;;5010784;28;20049;-75
2022/04/27 12:48:02;;;;;;;0.05;0.05;;;14.20;99.90;;;;;;5009716;28;20065;-75
2022/04/27 12:50:29;;;;;;;0.00;0.00;;;14.20;99.90;;;;;;5027126;28;20049;-75
2022/04/27 12:53:11;;;;;;;0.00;0.00;;;14.10;99.90;;;;;;5009562;28;20017;-74
2022/04/27 12:55:38;;;;;;;0.45;0.45;;;14.20;99.90;;;;;;5027330;28;20060;-69
2022/04/27 12:58:05;;;;;;;0.47;0.47;;;14.30;99.90;;;;;;5013013;28;20018;-80
2022/04/27 13:00:40;;;;;;;0.57;0.50;;;14.40;99.90;;;;;;5034692;28;20075;-76
2022/04/27 13:03:09;;;;;;;0.00;0.00;;;14.40;99.70;;;;;;5017340;28;20017;-71
2022/04/27 13:05:40;;;;;;;0.00;0.00;;;14.50;99.70;;;;;;5017749;28;20029;-71
2022/04/27 13:08:07;;;;;;;0.00;0.00;;;14.50;99.60;;;;;;5016195;28;20254;-71
2022/04/27 13:13:18;;;;;;;1.92;0.85;;;14.70;99.30;;;;;;5018496;28;20048;-80
2022/04/27 13:15:46;;;;;;;0.00;0.00;;;14.80;99.50;;;;;;5018127;28;20029;-73
2022/04/27 13:18:16;;;;;;;0.00;0.00;;;14.80;99.50;;;;;;5016906;28;20060;-79
2022/04/27 13:20:42;;;;;;;0.00;0.00;;;14.80;99.00;;;;;;5017093;28;20193;-78
2022/04/27 13:23:09;;;;;;;0.00;0.00;;;14.80;99.00;;;;;;5018832;28;20022;-73